Time,TemperatureF,DewpointF,PressureIn,WindDirection,WindDirectionDegrees,WindSpeedMPH,WindSpeedGustMPH,Humidity,HourlyPrecipIn,Conditions,Clouds,dailyrainin,SolarRadiationWatts/m^2,SoftwareType,DateUTC
2013-12-29 00:02:00,20.0,11.0,-100.00,NW,307,2.0,8.0,67,0.00,,,0.00,0.000000,,2013-12-29 07:02:00,
2013-12-29 00:11:00,20.0,11.0,-100.00,NW,307,2.0,8.0,67,0.00,,,0.00,0.000000,,2013-12-29 07:11:00,
2013-12-29 00:42:00,17.0,10.0,-100.00,WNW,295,2.0,4.0,73,0.00,,,0.00,0.000000,,2013-12-29 07:42:00,
2013-12-29 00:52:00,17.0,10.0,-100.00,WNW,295,2.0,4.0,73,0.00,,,0.00,0.000000,,2013-12-29 07:52:00,
2013-12-29 01:02:00,17.0,10.0,-100.00,WNW,295,2.0,4.0,73,0.00,,,0.00,0.000000,,2013-12-29 08:02:00,
2013-12-29 01:11:00,17.0,10.0,-100.00,WNW,295,2.0,4.0,73,0.00,,,0.00,0.000000,,2013-12-29 08:11:00,
2013-12-29 01:42:00,17.0,10.0,-100.00,WNW,286,3.0,5.0,74,0.00,,,0.00,0.000000,,2013-12-29 08:42:00,
2013-12-29 01:52:00,17.0,10.0,-100.00,WNW,286,3.0,5.0,74,0.00,,,0.00,0.000000,,2013-12-29 08:52:00,
2013-12-29 02:01:00,17.0,10.0,-100.00,WNW,286,3.0,5.0,74,0.00,,,0.00,0.000000,,2013-12-29 09:01:00,
2013-12-29 02:12:00,17.0,10.0,-100.00,WNW,286,3.0,5.0,74,0.00,,,0.00,0.000000,,2013-12-29 09:12:00,
2013-12-29 02:43:00,18.0,8.0,-100.00,West,281,3.0,7.0,64,0.00,,,0.00,0.000000,,2013-12-29 09:43:00,
2013-12-29 02:53:00,18.0,8.0,-100.00,West,281,3.0,7.0,64,0.00,,,0.00,0.000000,,2013-12-29 09:53:00,
2013-12-29 03:03:00,18.0,8.0,-100.00,West,281,3.0,7.0,64,0.00,,,0.00,0.000000,,2013-12-29 10:03:00,
2013-12-29 03:13:00,18.0,8.0,-100.00,West,281,3.0,7.0,64,0.00,,,0.00,0.000000,,2013-12-29 10:13:00,
2013-12-29 03:43:00,15.0,5.0,-100.00,NW,308,4.0,6.0,65,0.00,,,0.00,0.000000,,2013-12-29 10:43:00,
2013-12-29 03:53:00,15.0,5.0,-100.00,NW,308,4.0,6.0,65,0.00,,,0.00,0.000000,,2013-12-29 10:53:00,
2013-12-29 04:02:00,15.0,5.0,-100.00,NW,308,4.0,6.0,65,0.00,,,0.00,0.000000,,2013-12-29 11:02:00,
2013-12-29 04:12:00,15.0,5.0,-100.00,NW,308,4.0,6.0,65,0.00,,,0.00,0.000000,,2013-12-29 11:12:00,
2013-12-29 04:42:00,12.0,2.0,-100.00,WNW,297,3.0,5.0,63,0.00,,,0.00,0.000000,,2013-12-29 11:42:00,
2013-12-29 04:53:00,12.0,2.0,-100.00,WNW,297,3.0,5.0,63,0.00,,,0.00,0.000000,,2013-12-29 11:53:00,
2013-12-29 05:02:00,12.0,2.0,-100.00,WNW,297,3.0,5.0,63,0.00,,,0.00,0.000000,,2013-12-29 12:02:00,
2013-12-29 05:11:00,12.0,2.0,-100.00,WNW,297,3.0,5.0,63,0.00,,,0.00,0.000000,,2013-12-29 12:11:00,
2013-12-29 05:42:00,10.0,1.0,-100.00,West,270,4.0,7.0,65,0.00,,,0.00,0.000000,,2013-12-29 12:42:00,
2013-12-29 05:52:00,10.0,1.0,-100.00,West,270,4.0,7.0,65,0.00,,,0.00,0.000000,,2013-12-29 12:52:00,
2013-12-29 06:02:00,10.0,1.0,-100.00,West,270,4.0,7.0,65,0.00,,,0.00,0.000000,,2013-12-29 13:02:00,
2013-12-29 06:11:00,10.0,1.0,-100.00,West,270,4.0,7.0,65,0.00,,,0.00,0.000000,,2013-12-29 13:11:00,
2013-12-29 06:42:00,10.0,0.0,-100.00,West,264,3.0,7.0,64,0.00,,,0.00,0.000000,,2013-12-29 13:42:00,
2013-12-29 06:53:00,10.0,0.0,-100.00,West,264,3.0,7.0,64,0.00,,,0.00,0.000000,,2013-12-29 13:53:00,
2013-12-29 07:01:00,10.0,0.0,-100.00,West,264,3.0,7.0,64,0.00,,,0.00,0.000000,,2013-12-29 14:01:00,
2013-12-29 07:11:00,10.0,0.0,-100.00,West,264,3.0,7.0,64,0.00,,,0.00,0.000000,,2013-12-29 14:11:00,
2013-12-29 07:42:00,12.0,2.0,-100.00,WNW,285,4.0,7.0,64,0.00,,,0.00,0.000000,,2013-12-29 14:42:00,
2013-12-29 07:52:00,12.0,2.0,-100.00,WNW,285,4.0,7.0,64,0.00,,,0.00,0.000000,,2013-12-29 14:52:00,
2013-12-29 08:02:00,12.0,2.0,-100.00,WNW,285,4.0,7.0,64,0.00,,,0.00,0.000000,,2013-12-29 15:02:00,
2013-12-29 08:11:00,12.0,2.0,-100.00,WNW,285,4.0,7.0,64,0.00,,,0.00,0.000000,,2013-12-29 15:11:00,
2013-12-29 08:44:00,11.0,3.0,-100.00,WNW,299,1.0,7.0,71,0.00,,,0.00,6.000000,,2013-12-29 15:44:00,
2013-12-29 08:53:00,11.0,3.0,-100.00,WNW,299,1.0,7.0,71,0.00,,,0.00,6.000000,,2013-12-29 15:53:00,
2013-12-29 09:03:00,11.0,3.0,-100.00,WNW,299,1.0,7.0,71,0.00,,,0.00,6.000000,,2013-12-29 16:03:00,
2013-12-29 09:13:00,11.0,3.0,-100.00,WNW,299,1.0,7.0,71,0.00,,,0.00,6.000000,,2013-12-29 16:13:00,
2013-12-29 09:43:00,21.0,6.0,-100.00,West,272,3.0,6.0,52,0.00,,,0.00,112.000000,,2013-12-29 16:43:00,
2013-12-29 09:53:00,21.0,6.0,-100.00,West,272,3.0,6.0,52,0.00,,,0.00,112.000000,,2013-12-29 16:53:00,
2013-12-29 10:02:00,21.0,6.0,-100.00,West,272,3.0,6.0,52,0.00,,,0.00,112.000000,,2013-12-29 17:02:00,
2013-12-29 10:12:00,21.0,6.0,-100.00,West,272,3.0,6.0,52,0.00,,,0.00,112.000000,,2013-12-29 17:12:00,
2013-12-29 10:42:00,27.0,5.0,-100.00,East,81,6.0,9.0,39,0.00,,,-99.99,257.000000,,2013-12-29 17:42:00,
2013-12-29 10:52:00,27.0,5.0,-100.00,East,81,6.0,9.0,39,0.00,,,-99.99,257.000000,,2013-12-29 17:52:00,
2013-12-29 11:02:00,27.0,5.0,-100.00,East,81,6.0,9.0,39,0.00,,,-99.99,257.000000,,2013-12-29 18:02:00,
2013-12-29 11:11:00,27.0,5.0,-100.00,East,81,6.0,9.0,39,0.00,,,-99.99,257.000000,,2013-12-29 18:11:00,
2013-12-29 11:42:00,29.0,5.0,-100.00,East,97,10.0,14.0,35,0.00,,,0.00,393.000000,,2013-12-29 18:42:00,
2013-12-29 12:11:00,29.0,5.0,-100.00,East,97,10.0,14.0,35,0.00,,,0.00,393.000000,,2013-12-29 19:11:00,
2013-12-29 13:11:00,30.0,8.0,-100.00,East,95,7.0,16.0,38,0.00,,,0.00,370.000000,,2013-12-29 20:11:00,
2013-12-29 15:12:00,34.0,10.0,-100.00,West,279,6.0,14.0,36,-99.99,,,0.00,114.000000,,2013-12-29 22:12:00,
2013-12-29 16:12:00,33.0,12.0,-100.00,West,264,6.0,26.0,41,0.00,,,0.00,58.000000,,2013-12-29 23:12:00,
2013-12-29 17:11:00,29.0,10.0,-100.00,ENE,66,3.0,12.0,44,0.00,,,0.00,35.000000,,2013-12-30 00:11:00,
2013-12-29 18:11:00,28.0,10.0,-100.00,ENE,61,3.0,6.0,47,0.00,,,0.00,6.000000,,2013-12-30 01:11:00,
2013-12-29 19:11:00,28.0,11.0,-100.00,East,87,8.0,13.0,48,0.00,,,-99.99,0.000000,,2013-12-30 02:11:00,
2013-12-29 19:42:00,26.0,10.0,-100.00,ENE,69,6.0,15.0,51,0.00,,,0.00,0.000000,,2013-12-30 02:42:00,
2013-12-29 20:11:00,26.0,10.0,-100.00,ENE,69,6.0,15.0,51,0.00,,,0.00,0.000000,,2013-12-30 03:11:00,
2013-12-29 22:12:00,31.0,12.0,-100.00,WNW,289,5.0,14.0,45,-99.99,,,0.00,0.000000,,2013-12-30 05:12:00,